sensor_id;sensor_type;location;lat;lon;timestamp;P1;durP1;ratioP1;P2;durP2;ratioP2
41141;SDS011;26882;0.000;0.000;2022-08-25T07:24:32;23.20;;;9.10;;
41141;SDS011;26882;0.000;0.000;2022-08-25T07:27:03;15.90;;;8.30;;
41141;SDS011;26882;0.000;0.000;2022-08-25T07:29:34;16.80;;;8.70;;
41141;SDS011;26882;0.000;0.000;2022-08-25T07:32:07;15.50;;;9.30;;
41141;SDS011;26882;0.000;0.000;2022-08-25T07:34:38;18.50;;;7.90;;
41141;SDS011;26882;0.000;0.000;2022-08-25T07:37:29;18.20;;;9.00;;
41141;SDS011;26882;0.000;0.000;2022-08-25T07:40:04;18.80;;;8.50;;
41141;SDS011;26882;0.000;0.000;2022-08-25T07:42:35;19.90;;;9.80;;
41141;SDS011;26882;0.000;0.000;2022-08-25T07:45:08;17.30;;;8.40;;
41141;SDS011;26882;0.000;0.000;2022-08-25T07:47:40;17.30;;;8.70;;
41141;SDS011;26882;0.000;0.000;2022-08-25T07:50:12;22.60;;;9.40;;
41141;SDS011;26882;0.000;0.000;2022-08-25T07:52:44;17.10;;;8.60;;
41141;SDS011;26882;0.000;0.000;2022-08-25T07:55:18;17.20;;;8.80;;
41141;SDS011;26882;0.000;0.000;2022-08-25T07:57:49;16.70;;;8.60;;
41141;SDS011;26882;0.000;0.000;2022-08-25T08:00:24;17.50;;;8.90;;
41141;SDS011;26882;0.000;0.000;2022-08-25T08:02:58;15.50;;;9.00;;
41141;SDS011;26882;0.000;0.000;2022-08-25T08:05:30;13.40;;;8.10;;
41141;SDS011;26882;0.000;0.000;2022-08-25T08:08:02;16.90;;;8.50;;
41141;SDS011;26882;0.000;0.000;2022-08-25T08:10:38;16.90;;;9.30;;
41141;SDS011;26882;0.000;0.000;2022-08-25T08:13:10;14.00;;;9.40;;
41141;SDS011;26882;0.000;0.000;2022-08-25T08:15:42;19.80;;;9.00;;
41141;SDS011;26882;0.000;0.000;2022-08-25T08:18:13;18.20;;;9.10;;
41141;SDS011;26882;0.000;0.000;2022-08-25T08:20:48;17.50;;;9.10;;
41141;SDS011;26882;0.000;0.000;2022-08-25T08:23:19;16.90;;;8.80;;
41141;SDS011;26882;0.000;0.000;2022-08-25T08:25:56;14.80;;;8.30;;
41141;SDS011;26882;0.000;0.000;2022-08-25T08:28:29;13.90;;;7.80;;
41141;SDS011;26882;0.000;0.000;2022-08-25T08:33:29;16.20;;;9.00;;
41141;SDS011;26882;0.000;0.000;2022-08-25T08:36:03;15.00;;;8.30;;
41141;SDS011;26882;0.000;0.000;2022-08-25T08:38:35;13.60;;;7.80;;
41141;SDS011;26882;0.000;0.000;2022-08-25T08:41:16;14.30;;;8.50;;
41141;SDS011;26882;0.000;0.000;2022-08-25T08:44:14;16.40;;;8.80;;
41141;SDS011;26882;0.000;0.000;2022-08-25T08:46:52;17.50;;;8.70;;
41141;SDS011;26882;0.000;0.000;2022-08-25T08:49:29;13.40;;;8.40;;
41141;SDS011;26882;0.000;0.000;2022-08-25T08:52:04;16.60;;;8.60;;
41141;SDS011;26882;0.000;0.000;2022-08-25T08:54:37;13.70;;;8.70;;
41141;SDS011;26882;0.000;0.000;2022-08-25T08:57:14;14.20;;;9.10;;
41141;SDS011;26882;0.000;0.000;2022-08-25T08:59:52;14.20;;;8.70;;
41141;SDS011;26882;0.000;0.000;2022-08-25T09:02:27;16.80;;;8.90;;
41141;SDS011;26882;0.000;0.000;2022-08-25T09:05:03;16.20;;;9.00;;
41141;SDS011;26882;0.000;0.000;2022-08-25T09:07:39;12.80;;;8.30;;
41141;SDS011;26882;0.000;0.000;2022-08-25T09:10:11;15.10;;;8.80;;
41141;SDS011;26882;0.000;0.000;2022-08-25T09:12:45;12.00;;;8.40;;
41141;SDS011;26882;0.000;0.000;2022-08-25T09:15:19;14.00;;;7.70;;
41141;SDS011;26882;0.000;0.000;2022-08-25T09:18:04;13.30;;;7.70;;
41141;SDS011;26882;0.000;0.000;2022-08-25T09:20:43;13.60;;;7.80;;
41141;SDS011;26882;0.000;0.000;2022-08-25T09:23:27;13.50;;;7.80;;
41141;SDS011;26882;0.000;0.000;2022-08-25T09:26:08;11.80;;;8.10;;
41141;SDS011;26882;0.000;0.000;2022-08-25T09:28:42;11.50;;;7.70;;
41141;SDS011;26882;0.000;0.000;2022-08-25T09:31:21;14.20;;;7.90;;
41141;SDS011;26882;0.000;0.000;2022-08-25T09:33:54;13.70;;;7.40;;
41141;SDS011;26882;0.000;0.000;2022-08-25T09:36:25;11.20;;;7.50;;
41141;SDS011;26882;0.000;0.000;2022-08-25T09:38:57;13.70;;;8.10;;
41141;SDS011;26882;0.000;0.000;2022-08-25T09:41:45;13.10;;;8.00;;
41141;SDS011;26882;0.000;0.000;2022-08-25T09:44:21;16.10;;;8.10;;
41141;SDS011;26882;0.000;0.000;2022-08-25T09:47:02;13.30;;;8.20;;
41141;SDS011;26882;0.000;0.000;2022-08-25T09:49:42;14.40;;;8.40;;
41141;SDS011;26882;0.000;0.000;2022-08-25T09:52:28;15.10;;;8.30;;
41141;SDS011;26882;0.000;0.000;2022-08-25T09:57:49;12.80;;;7.60;;
41141;SDS011;26882;0.000;0.000;2022-08-25T10:00:26;14.30;;;7.90;;
41141;SDS011;26882;0.000;0.000;2022-08-25T10:03:10;14.10;;;7.80;;
41141;SDS011;26882;0.000;0.000;2022-08-25T10:05:58;12.80;;;8.40;;
41141;SDS011;26882;0.000;0.000;2022-08-25T10:08:33;14.80;;;8.30;;
41141;SDS011;26882;0.000;0.000;2022-08-25T10:11:06;14.50;;;7.80;;
41141;SDS011;26882;0.000;0.000;2022-08-25T10:13:42;13.90;;;8.00;;
41141;SDS011;26882;0.000;0.000;2022-08-25T10:16:23;14.50;;;8.30;;
41141;SDS011;26882;0.000;0.000;2022-08-25T10:19:12;16.50;;;7.70;;
41141;SDS011;26882;0.000;0.000;2022-08-25T10:21:43;15.60;;;8.50;;
41141;SDS011;26882;0.000;0.000;2022-08-25T10:24:13;16.00;;;7.90;;
41141;SDS011;26882;0.000;0.000;2022-08-25T10:26:56;19.20;;;7.90;;
41141;SDS011;26882;0.000;0.000;2022-08-25T10:29:51;14.50;;;7.90;;
41141;SDS011;26882;0.000;0.000;2022-08-25T10:32:25;16.50;;;7.90;;
41141;SDS011;26882;0.000;0.000;2022-08-25T10:35:05;17.00;;;7.90;;
41141;SDS011;26882;0.000;0.000;2022-08-25T10:37:41;15.60;;;8.20;;
41141;SDS011;26882;0.000;0.000;2022-08-25T10:40:19;15.30;;;7.80;;
41141;SDS011;26882;0.000;0.000;2022-08-25T10:42:58;15.30;;;7.80;;
41141;SDS011;26882;0.000;0.000;2022-08-25T10:45:37;13.90;;;7.80;;
41141;SDS011;26882;0.000;0.000;2022-08-25T10:48:27;13.00;;;7.80;;
41141;SDS011;26882;0.000;0.000;2022-08-25T10:51:04;13.40;;;7.30;;
41141;SDS011;26882;0.000;0.000;2022-08-25T10:53:47;11.80;;;6.90;;
41141;SDS011;26882;0.000;0.000;2022-08-25T10:56:25;12.70;;;6.90;;
41141;SDS011;26882;0.000;0.000;2022-08-25T10:59:06;12.40;;;7.40;;
41141;SDS011;26882;0.000;0.000;2022-08-25T11:01:49;14.30;;;7.10;;
41141;SDS011;26882;0.000;0.000;2022-08-25T11:04:27;11.60;;;6.80;;
41141;SDS011;26882;0.000;0.000;2022-08-25T11:07:02;10.80;;;6.40;;
41141;SDS011;26882;0.000;0.000;2022-08-25T11:09:37;14.20;;;7.40;;
41141;SDS011;26882;0.000;0.000;2022-08-25T11:12:12;12.10;;;7.00;;
41141;SDS011;26882;0.000;0.000;2022-08-25T11:14:48;12.20;;;6.30;;
41141;SDS011;26882;0.000;0.000;2022-08-25T11:17:24;14.80;;;6.90;;
41141;SDS011;26882;0.000;0.000;2022-08-25T11:20:00;11.20;;;6.20;;
41141;SDS011;26882;0.000;0.000;2022-08-25T11:22:37;11.50;;;5.30;;
41141;SDS011;26882;0.000;0.000;2022-08-25T11:25:13;13.30;;;5.50;;
41141;SDS011;26882;0.000;0.000;2022-08-25T11:28:05;11.10;;;5.00;;
41141;SDS011;26882;0.000;0.000;2022-08-25T11:30:42;9.40;;;4.60;;
41141;SDS011;26882;0.000;0.000;2022-08-25T11:33:15;9.50;;;4.50;;
41141;SDS011;26882;0.000;0.000;2022-08-25T11:35:48;10.10;;;4.30;;
41141;SDS011;26882;0.000;0.000;2022-08-25T11:38:34;7.80;;;4.30;;
41141;SDS011;26882;0.000;0.000;2022-08-25T11:41:20;9.80;;;4.60;;
41141;SDS011;26882;0.000;0.000;2022-08-25T11:44:07;9.10;;;4.40;;
41141;SDS011;26882;0.000;0.000;2022-08-25T11:46:59;10.60;;;4.00;;
41141;SDS011;26882;0.000;0.000;2022-08-25T11:49:44;11.70;;;4.00;;
41141;SDS011;26882;0.000;0.000;2022-08-25T11:55:27;7.80;;;3.50;;
41141;SDS011;26882;0.000;0.000;2022-08-25T11:58:30;9.40;;;3.80;;
41141;SDS011;26882;0.000;0.000;2022-08-25T12:01:03;8.10;;;4.30;;
41141;SDS011;26882;0.000;0.000;2022-08-25T12:03:52;9.40;;;4.40;;
41141;SDS011;26882;0.000;0.000;2022-08-25T12:06:26;8.80;;;3.90;;
41141;SDS011;26882;0.000;0.000;2022-08-25T12:09:22;6.80;;;3.60;;
41141;SDS011;26882;0.000;0.000;2022-08-25T12:11:56;8.70;;;4.40;;
41141;SDS011;26882;0.000;0.000;2022-08-25T12:14:45;9.00;;;4.50;;
41141;SDS011;26882;0.000;0.000;2022-08-25T12:17:37;8.50;;;3.90;;
41141;SDS011;26882;0.000;0.000;2022-08-25T12:20:09;5.90;;;3.60;;
41141;SDS011;26882;0.000;0.000;2022-08-25T12:22:52;9.20;;;4.00;;
41141;SDS011;26882;0.000;0.000;2022-08-25T12:25:33;5.50;;;3.10;;
41141;SDS011;26882;0.000;0.000;2022-08-25T12:28:10;6.10;;;3.20;;
41141;SDS011;26882;0.000;0.000;2022-08-25T12:30:47;8.50;;;3.60;;
41141;SDS011;26882;0.000;0.000;2022-08-25T12:33:26;6.60;;;3.80;;
41141;SDS011;26882;0.000;0.000;2022-08-25T12:36:03;7.90;;;3.70;;
41141;SDS011;26882;0.000;0.000;2022-08-25T12:38:42;6.50;;;3.50;;
41141;SDS011;26882;0.000;0.000;2022-08-25T12:41:16;6.60;;;3.30;;
41141;SDS011;26882;0.000;0.000;2022-08-25T12:43:49;7.80;;;3.60;;
41141;SDS011;26882;0.000;0.000;2022-08-25T12:49:30;6.70;;;3.70;;
41141;SDS011;26882;0.000;0.000;2022-08-25T12:52:04;5.60;;;3.20;;
41141;SDS011;26882;0.000;0.000;2022-08-25T12:54:48;6.30;;;3.30;;
41141;SDS011;26882;0.000;0.000;2022-08-25T12:57:36;5.80;;;3.10;;
41141;SDS011;26882;0.000;0.000;2022-08-25T13:00:13;6.30;;;3.20;;
41141;SDS011;26882;0.000;0.000;2022-08-25T13:03:07;6.20;;;3.40;;
41141;SDS011;26882;0.000;0.000;2022-08-25T13:06:13;5.80;;;3.70;;
41141;SDS011;26882;0.000;0.000;2022-08-25T13:09:07;7.50;;;3.20;;
41141;SDS011;26882;0.000;0.000;2022-08-25T13:11:50;7.00;;;3.40;;
41141;SDS011;26882;0.000;0.000;2022-08-25T13:14:27;6.40;;;3.20;;
41141;SDS011;26882;0.000;0.000;2022-08-25T13:17:02;7.80;;;3.50;;
41141;SDS011;26882;0.000;0.000;2022-08-25T13:19:35;5.70;;;3.40;;
41141;SDS011;26882;0.000;0.000;2022-08-25T13:22:13;7.10;;;3.50;;
41141;SDS011;26882;0.000;0.000;2022-08-25T13:24:46;6.20;;;3.60;;
41141;SDS011;26882;0.000;0.000;2022-08-25T13:27:20;6.60;;;3.50;;
41141;SDS011;26882;0.000;0.000;2022-08-25T13:29:53;5.60;;;3.50;;
41141;SDS011;26882;0.000;0.000;2022-08-25T13:32:30;9.30;;;3.80;;
41141;SDS011;26882;0.000;0.000;2022-08-25T13:35:14;7.60;;;3.40;;
41141;SDS011;26882;0.000;0.000;2022-08-25T13:37:45;6.90;;;3.90;;
41141;SDS011;26882;0.000;0.000;2022-08-25T13:40:23;6.20;;;3.40;;
41141;SDS011;26882;0.000;0.000;2022-08-25T13:42:57;7.00;;;3.60;;
41141;SDS011;26882;0.000;0.000;2022-08-25T13:45:29;5.40;;;3.60;;
41141;SDS011;26882;0.000;0.000;2022-08-25T13:48:03;8.20;;;3.60;;
41141;SDS011;26882;0.000;0.000;2022-08-25T13:50:38;6.00;;;3.40;;
41141;SDS011;26882;0.000;0.000;2022-08-25T13:53:12;7.60;;;3.60;;
41141;SDS011;26882;0.000;0.000;2022-08-25T13:55:53;7.20;;;3.70;;
41141;SDS011;26882;0.000;0.000;2022-08-25T13:58:26;6.00;;;3.30;;
41141;SDS011;26882;0.000;0.000;2022-08-25T14:01:11;6.40;;;3.40;;
41141;SDS011;26882;0.000;0.000;2022-08-25T14:03:45;6.20;;;3.00;;
41141;SDS011;26882;0.000;0.000;2022-08-25T14:06:22;6.40;;;3.30;;
41141;SDS011;26882;0.000;0.000;2022-08-25T14:09:11;8.00;;;3.60;;
41141;SDS011;26882;0.000;0.000;2022-08-25T14:11:47;7.20;;;3.40;;
41141;SDS011;26882;0.000;0.000;2022-08-25T14:14:32;6.40;;;3.10;;
41141;SDS011;26882;0.000;0.000;2022-08-25T14:17:06;6.40;;;3.00;;
41141;SDS011;26882;0.000;0.000;2022-08-25T14:19:43;5.00;;;3.10;;
41141;SDS011;26882;0.000;0.000;2022-08-25T14:22:15;6.70;;;3.40;;
41141;SDS011;26882;0.000;0.000;2022-08-25T14:24:46;8.00;;;3.40;;
41141;SDS011;26882;0.000;0.000;2022-08-25T14:27:17;6.00;;;3.10;;
41141;SDS011;26882;0.000;0.000;2022-08-25T14:29:48;5.40;;;3.10;;
41141;SDS011;26882;0.000;0.000;2022-08-25T14:32:19;6.50;;;3.20;;
41141;SDS011;26882;0.000;0.000;2022-08-25T14:34:50;5.70;;;3.30;;
41141;SDS011;26882;0.000;0.000;2022-08-25T14:37:24;5.80;;;3.10;;
41141;SDS011;26882;0.000;0.000;2022-08-25T14:39:55;6.30;;;3.20;;
41141;SDS011;26882;0.000;0.000;2022-08-25T14:42:27;5.30;;;3.30;;
41141;SDS011;26882;0.000;0.000;2022-08-25T14:44:57;5.80;;;3.40;;
41141;SDS011;26882;0.000;0.000;2022-08-25T14:47:28;5.30;;;3.10;;
41141;SDS011;26882;0.000;0.000;2022-08-25T14:50:00;7.00;;;3.20;;
41141;SDS011;26882;0.000;0.000;2022-08-25T14:52:32;6.30;;;3.60;;
41141;SDS011;26882;0.000;0.000;2022-08-25T14:55:06;6.70;;;3.30;;
41141;SDS011;26882;0.000;0.000;2022-08-25T14:57:37;6.90;;;4.00;;
41141;SDS011;26882;0.000;0.000;2022-08-25T15:00:10;6.20;;;3.50;;
41141;SDS011;26882;0.000;0.000;2022-08-25T15:02:42;6.80;;;3.00;;
41141;SDS011;26882;0.000;0.000;2022-08-25T15:05:13;5.40;;;3.20;;
41141;SDS011;26882;0.000;0.000;2022-08-25T15:07:45;5.40;;;3.20;;
41141;SDS011;26882;0.000;0.000;2022-08-25T15:10:33;7.60;;;3.00;;
41141;SDS011;26882;0.000;0.000;2022-08-25T15:13:04;5.90;;;3.40;;
41141;SDS011;26882;0.000;0.000;2022-08-25T15:15:37;5.30;;;3.00;;
41141;SDS011;26882;0.000;0.000;2022-08-25T15:18:08;5.50;;;3.30;;
41141;SDS011;26882;0.000;0.000;2022-08-25T15:20:40;5.80;;;3.50;;
41141;SDS011;26882;0.000;0.000;2022-08-25T15:23:11;6.80;;;3.30;;
41141;SDS011;26882;0.000;0.000;2022-08-25T15:25:42;6.10;;;3.20;;
41141;SDS011;26882;0.000;0.000;2022-08-25T15:28:17;6.20;;;3.50;;
41141;SDS011;26882;0.000;0.000;2022-08-25T15:30:48;6.60;;;3.50;;
41141;SDS011;26882;0.000;0.000;2022-08-25T15:33:19;5.00;;;3.20;;
41141;SDS011;26882;0.000;0.000;2022-08-25T15:35:51;5.30;;;3.30;;
41141;SDS011;26882;0.000;0.000;2022-08-25T15:38:22;5.20;;;2.90;;
41141;SDS011;26882;0.000;0.000;2022-08-25T15:40:54;5.00;;;2.90;;
41141;SDS011;26882;0.000;0.000;2022-08-25T15:43:26;7.20;;;3.20;;
41141;SDS011;26882;0.000;0.000;2022-08-25T15:45:57;6.70;;;3.30;;
41141;SDS011;26882;0.000;0.000;2022-08-25T15:48:28;4.80;;;3.00;;
41141;SDS011;26882;0.000;0.000;2022-08-25T15:50:59;7.60;;;3.20;;
41141;SDS011;26882;0.000;0.000;2022-08-25T15:53:29;6.30;;;3.10;;
41141;SDS011;26882;0.000;0.000;2022-08-25T15:56:00;6.00;;;3.20;;
41141;SDS011;26882;0.000;0.000;2022-08-25T15:58:34;7.40;;;3.40;;
41141;SDS011;26882;0.000;0.000;2022-08-25T16:01:05;7.20;;;2.90;;
41141;SDS011;26882;0.000;0.000;2022-08-25T16:03:36;8.20;;;2.90;;
41141;SDS011;26882;0.000;0.000;2022-08-25T16:06:08;6.90;;;3.10;;
41141;SDS011;26882;0.000;0.000;2022-08-25T16:08:39;8.00;;;3.40;;
41141;SDS011;26882;0.000;0.000;2022-08-25T16:11:18;5.50;;;3.30;;
41141;SDS011;26882;0.000;0.000;2022-08-25T16:13:52;6.70;;;3.00;;
41141;SDS011;26882;0.000;0.000;2022-08-25T16:16:27;8.30;;;3.20;;
41141;SDS011;26882;0.000;0.000;2022-08-25T16:18:58;5.30;;;2.90;;
41141;SDS011;26882;0.000;0.000;2022-08-25T16:21:30;5.80;;;3.10;;
41141;SDS011;26882;0.000;0.000;2022-08-25T16:24:12;6.40;;;3.30;;
41141;SDS011;26882;0.000;0.000;2022-08-25T16:26:45;8.00;;;3.30;;
41141;SDS011;26882;0.000;0.000;2022-08-25T16:29:17;6.70;;;2.90;;
41141;SDS011;26882;0.000;0.000;2022-08-25T16:31:48;6.00;;;3.00;;
41141;SDS011;26882;0.000;0.000;2022-08-25T16:34:19;6.30;;;2.80;;
41141;SDS011;26882;0.000;0.000;2022-08-25T16:36:50;6.60;;;3.20;;
41141;SDS011;26882;0.000;0.000;2022-08-25T16:39:21;6.10;;;3.20;;
41141;SDS011;26882;0.000;0.000;2022-08-25T16:41:52;6.80;;;3.10;;
41141;SDS011;26882;0.000;0.000;2022-08-25T16:44:22;5.70;;;2.80;;
41141;SDS011;26882;0.000;0.000;2022-08-25T16:46:54;6.00;;;2.80;;
41141;SDS011;26882;0.000;0.000;2022-08-25T16:49:25;6.20;;;3.00;;
41141;SDS011;26882;0.000;0.000;2022-08-25T16:51:58;6.00;;;3.10;;
41141;SDS011;26882;0.000;0.000;2022-08-25T16:54:30;7.50;;;3.20;;
41141;SDS011;26882;0.000;0.000;2022-08-25T16:57:18;5.80;;;2.80;;
41141;SDS011;26882;0.000;0.000;2022-08-25T16:59:49;8.50;;;2.90;;
41141;SDS011;26882;0.000;0.000;2022-08-25T17:02:19;6.80;;;2.70;;
41141;SDS011;26882;0.000;0.000;2022-08-25T17:04:50;5.00;;;2.90;;
41141;SDS011;26882;0.000;0.000;2022-08-25T17:07:20;5.60;;;2.90;;
41141;SDS011;26882;0.000;0.000;2022-08-25T17:09:51;6.20;;;3.10;;
41141;SDS011;26882;0.000;0.000;2022-08-25T17:12:23;5.60;;;2.80;;
41141;SDS011;26882;0.000;0.000;2022-08-25T17:14:53;6.00;;;3.50;;
41141;SDS011;26882;0.000;0.000;2022-08-25T17:17:24;5.90;;;3.00;;
41141;SDS011;26882;0.000;0.000;2022-08-25T17:19:55;7.30;;;3.20;;
41141;SDS011;26882;0.000;0.000;2022-08-25T17:22:25;5.50;;;2.80;;
41141;SDS011;26882;0.000;0.000;2022-08-25T17:24:56;5.60;;;2.80;;
41141;SDS011;26882;0.000;0.000;2022-08-25T17:27:27;5.90;;;2.90;;
41141;SDS011;26882;0.000;0.000;2022-08-25T17:29:57;5.10;;;2.70;;
41141;SDS011;26882;0.000;0.000;2022-08-25T17:32:28;5.80;;;3.10;;
41141;SDS011;26882;0.000;0.000;2022-08-25T17:35:00;6.30;;;2.80;;
41141;SDS011;26882;0.000;0.000;2022-08-25T17:37:31;7.30;;;3.00;;
41141;SDS011;26882;0.000;0.000;2022-08-25T17:40:07;5.10;;;2.90;;
41141;SDS011;26882;0.000;0.000;2022-08-25T17:42:39;4.70;;;3.00;;
41141;SDS011;26882;0.000;0.000;2022-08-25T17:45:15;5.10;;;3.30;;
41141;SDS011;26882;0.000;0.000;2022-08-25T17:47:47;5.60;;;3.00;;
41141;SDS011;26882;0.000;0.000;2022-08-25T17:50:17;6.90;;;3.10;;
41141;SDS011;26882;0.000;0.000;2022-08-25T17:52:48;5.60;;;2.70;;
41141;SDS011;26882;0.000;0.000;2022-08-25T17:55:19;5.90;;;2.80;;
41141;SDS011;26882;0.000;0.000;2022-08-25T17:57:52;5.70;;;2.90;;
41141;SDS011;26882;0.000;0.000;2022-08-25T18:00:24;5.10;;;3.00;;
41141;SDS011;26882;0.000;0.000;2022-08-25T18:02:55;4.60;;;2.80;;
41141;SDS011;26882;0.000;0.000;2022-08-25T18:05:27;6.10;;;3.30;;
41141;SDS011;26882;0.000;0.000;2022-08-25T18:07:58;4.80;;;3.00;;
41141;SDS011;26882;0.000;0.000;2022-08-25T18:10:32;6.50;;;3.20;;
41141;SDS011;26882;0.000;0.000;2022-08-25T18:13:06;6.60;;;3.10;;
41141;SDS011;26882;0.000;0.000;2022-08-25T18:15:37;6.00;;;2.80;;
41141;SDS011;26882;0.000;0.000;2022-08-25T18:18:08;6.70;;;3.10;;
41141;SDS011;26882;0.000;0.000;2022-08-25T18:20:41;6.70;;;3.10;;
41141;SDS011;26882;0.000;0.000;2022-08-25T18:23:12;5.50;;;3.00;;
41141;SDS011;26882;0.000;0.000;2022-08-25T18:25:44;5.50;;;2.80;;
41141;SDS011;26882;0.000;0.000;2022-08-25T18:28:14;6.50;;;3.10;;
41141;SDS011;26882;0.000;0.000;2022-08-25T18:30:45;6.50;;;2.80;;
41141;SDS011;26882;0.000;0.000;2022-08-25T18:33:16;5.90;;;2.90;;
41141;SDS011;26882;0.000;0.000;2022-08-25T18:35:47;5.70;;;3.00;;
41141;SDS011;26882;0.000;0.000;2022-08-25T18:38:18;5.20;;;3.10;;
41141;SDS011;26882;0.000;0.000;2022-08-25T18:41:09;5.50;;;2.80;;
41141;SDS011;26882;0.000;0.000;2022-08-25T18:43:41;4.60;;;2.90;;
41141;SDS011;26882;0.000;0.000;2022-08-25T18:46:11;5.60;;;3.00;;
41141;SDS011;26882;0.000;0.000;2022-08-25T18:48:42;5.70;;;3.00;;
41141;SDS011;26882;0.000;0.000;2022-08-25T18:51:13;6.10;;;3.00;;
41141;SDS011;26882;0.000;0.000;2022-08-25T18:53:44;8.40;;;3.30;;
41141;SDS011;26882;0.000;0.000;2022-08-25T18:56:15;7.80;;;3.30;;
41141;SDS011;26882;0.000;0.000;2022-08-25T18:58:46;6.00;;;3.10;;
41141;SDS011;26882;0.000;0.000;2022-08-25T19:01:18;5.40;;;3.20;;
41141;SDS011;26882;0.000;0.000;2022-08-25T19:03:49;6.60;;;3.10;;
41141;SDS011;26882;0.000;0.000;2022-08-25T19:06:20;7.70;;;3.20;;
41141;SDS011;26882;0.000;0.000;2022-08-25T19:08:54;7.30;;;3.10;;
41141;SDS011;26882;0.000;0.000;2022-08-25T19:11:26;5.90;;;3.00;;
41141;SDS011;26882;0.000;0.000;2022-08-25T19:13:56;5.00;;;2.60;;
41141;SDS011;26882;0.000;0.000;2022-08-25T19:16:36;6.40;;;3.10;;
41141;SDS011;26882;0.000;0.000;2022-08-25T19:19:08;7.20;;;3.40;;
41141;SDS011;26882;0.000;0.000;2022-08-25T19:21:41;6.30;;;2.90;;
41141;SDS011;26882;0.000;0.000;2022-08-25T19:24:16;6.00;;;2.90;;
41141;SDS011;26882;0.000;0.000;2022-08-25T19:26:47;7.00;;;3.20;;
41141;SDS011;26882;0.000;0.000;2022-08-25T19:29:19;6.80;;;3.20;;
41141;SDS011;26882;0.000;0.000;2022-08-25T19:31:49;5.60;;;3.30;;
41141;SDS011;26882;0.000;0.000;2022-08-25T19:34:26;6.60;;;2.90;;
41141;SDS011;26882;0.000;0.000;2022-08-25T19:36:59;6.10;;;3.10;;
41141;SDS011;26882;0.000;0.000;2022-08-25T19:39:32;6.30;;;3.20;;
41141;SDS011;26882;0.000;0.000;2022-08-25T19:42:07;7.80;;;3.30;;
41141;SDS011;26882;0.000;0.000;2022-08-25T19:44:38;5.70;;;3.00;;
41141;SDS011;26882;0.000;0.000;2022-08-25T19:47:09;5.60;;;2.90;;
41141;SDS011;26882;0.000;0.000;2022-08-25T19:49:47;6.90;;;3.10;;
41141;SDS011;26882;0.000;0.000;2022-08-25T19:52:18;6.50;;;3.10;;
41141;SDS011;26882;0.000;0.000;2022-08-25T19:54:53;5.80;;;3.40;;
41141;SDS011;26882;0.000;0.000;2022-08-25T19:57:24;6.80;;;3.10;;
41141;SDS011;26882;0.000;0.000;2022-08-25T19:59:57;6.10;;;3.30;;
41141;SDS011;26882;0.000;0.000;2022-08-25T20:02:28;6.20;;;3.10;;
41141;SDS011;26882;0.000;0.000;2022-08-25T20:05:00;7.30;;;3.50;;
41141;SDS011;26882;0.000;0.000;2022-08-25T20:07:31;7.50;;;3.30;;
41141;SDS011;26882;0.000;0.000;2022-08-25T20:10:06;6.80;;;3.60;;
41141;SDS011;26882;0.000;0.000;2022-08-25T20:12:37;7.60;;;3.40;;
41141;SDS011;26882;0.000;0.000;2022-08-25T20:15:10;8.80;;;3.40;;
41141;SDS011;26882;0.000;0.000;2022-08-25T20:17:43;7.30;;;3.50;;
41141;SDS011;26882;0.000;0.000;2022-08-25T20:20:16;5.70;;;3.20;;
41141;SDS011;26882;0.000;0.000;2022-08-25T20:22:48;7.50;;;3.30;;
41141;SDS011;26882;0.000;0.000;2022-08-25T20:25:21;6.30;;;3.50;;
41141;SDS011;26882;0.000;0.000;2022-08-25T20:27:54;8.10;;;3.30;;
41141;SDS011;26882;0.000;0.000;2022-08-25T20:30:27;5.90;;;3.40;;
41141;SDS011;26882;0.000;0.000;2022-08-25T20:32:58;6.80;;;3.30;;
41141;SDS011;26882;0.000;0.000;2022-08-25T20:35:30;7.50;;;3.70;;
41141;SDS011;26882;0.000;0.000;2022-08-25T20:38:02;6.00;;;3.40;;
41141;SDS011;26882;0.000;0.000;2022-08-25T20:43:06;6.60;;;3.60;;
41141;SDS011;26882;0.000;0.000;2022-08-25T20:45:39;6.50;;;3.60;;
41141;SDS011;26882;0.000;0.000;2022-08-25T20:48:13;5.30;;;3.40;;
41141;SDS011;26882;0.000;0.000;2022-08-25T20:53:15;6.20;;;3.60;;
41141;SDS011;26882;0.000;0.000;2022-08-25T20:55:47;8.10;;;3.80;;
41141;SDS011;26882;0.000;0.000;2022-08-25T20:58:20;7.00;;;3.90;;
41141;SDS011;26882;0.000;0.000;2022-08-25T21:00:51;6.50;;;3.60;;
41141;SDS011;26882;0.000;0.000;2022-08-25T21:03:21;7.50;;;3.60;;
41141;SDS011;26882;0.000;0.000;2022-08-25T21:05:52;7.30;;;3.50;;
41141;SDS011;26882;0.000;0.000;2022-08-25T21:08:22;6.00;;;3.90;;
41141;SDS011;26882;0.000;0.000;2022-08-25T21:10:53;8.30;;;4.20;;
41141;SDS011;26882;0.000;0.000;2022-08-25T21:13:24;6.30;;;3.80;;
41141;SDS011;26882;0.000;0.000;2022-08-25T21:15:55;6.60;;;3.20;;
41141;SDS011;26882;0.000;0.000;2022-08-25T21:18:28;7.70;;;3.50;;
41141;SDS011;26882;0.000;0.000;2022-08-25T21:21:02;5.70;;;3.20;;
41141;SDS011;26882;0.000;0.000;2022-08-25T21:23:34;7.80;;;3.80;;
41141;SDS011;26882;0.000;0.000;2022-08-25T21:26:05;7.10;;;3.60;;
41141;SDS011;26882;0.000;0.000;2022-08-25T21:28:36;8.50;;;4.10;;
41141;SDS011;26882;0.000;0.000;2022-08-25T21:31:08;6.70;;;3.90;;
41141;SDS011;26882;0.000;0.000;2022-08-25T21:33:39;9.10;;;3.90;;
41141;SDS011;26882;0.000;0.000;2022-08-25T21:36:11;8.50;;;3.40;;
41141;SDS011;26882;0.000;0.000;2022-08-25T21:38:42;7.60;;;3.60;;
41141;SDS011;26882;0.000;0.000;2022-08-25T21:41:15;6.90;;;3.70;;
41141;SDS011;26882;0.000;0.000;2022-08-25T21:43:46;6.90;;;3.90;;
41141;SDS011;26882;0.000;0.000;2022-08-25T21:46:22;5.20;;;3.50;;
41141;SDS011;26882;0.000;0.000;2022-08-25T21:48:53;7.20;;;3.70;;
41141;SDS011;26882;0.000;0.000;2022-08-25T21:51:26;8.20;;;3.60;;
41141;SDS011;26882;0.000;0.000;2022-08-25T21:54:01;8.10;;;4.40;;
41141;SDS011;26882;0.000;0.000;2022-08-25T21:56:48;6.70;;;3.70;;
41141;SDS011;26882;0.000;0.000;2022-08-25T21:59:21;7.30;;;4.10;;
41141;SDS011;26882;0.000;0.000;2022-08-25T22:01:56;7.30;;;4.00;;
41141;SDS011;26882;0.000;0.000;2022-08-25T22:04:27;6.40;;;3.50;;
41141;SDS011;26882;0.000;0.000;2022-08-25T22:06:58;7.40;;;3.60;;
41141;SDS011;26882;0.000;0.000;2022-08-25T22:09:30;6.20;;;3.90;;
41141;SDS011;26882;0.000;0.000;2022-08-25T22:12:06;6.30;;;3.60;;
41141;SDS011;26882;0.000;0.000;2022-08-25T22:14:38;6.60;;;3.90;;
41141;SDS011;26882;0.000;0.000;2022-08-25T22:17:09;8.20;;;3.60;;
41141;SDS011;26882;0.000;0.000;2022-08-25T22:19:41;8.40;;;3.60;;
41141;SDS011;26882;0.000;0.000;2022-08-25T22:22:14;7.30;;;3.70;;
41141;SDS011;26882;0.000;0.000;2022-08-25T22:24:45;7.40;;;4.10;;
41141;SDS011;26882;0.000;0.000;2022-08-25T22:27:18;6.20;;;3.20;;
41141;SDS011;26882;0.000;0.000;2022-08-25T22:29:50;8.10;;;3.40;;
41141;SDS011;26882;0.000;0.000;2022-08-25T22:32:22;7.90;;;3.70;;
41141;SDS011;26882;0.000;0.000;2022-08-25T22:34:54;6.10;;;3.90;;
41141;SDS011;26882;0.000;0.000;2022-08-25T22:37:26;6.30;;;3.90;;
41141;SDS011;26882;0.000;0.000;2022-08-25T22:39:57;7.10;;;3.90;;
41141;SDS011;26882;0.000;0.000;2022-08-25T22:42:28;6.70;;;4.00;;
41141;SDS011;26882;0.000;0.000;2022-08-25T22:44:59;7.40;;;3.90;;
41141;SDS011;26882;0.000;0.000;2022-08-25T22:47:33;6.10;;;3.50;;
41141;SDS011;26882;0.000;0.000;2022-08-25T22:50:08;9.20;;;3.60;;
41141;SDS011;26882;0.000;0.000;2022-08-25T22:52:39;7.20;;;3.80;;
41141;SDS011;26882;0.000;0.000;2022-08-25T22:55:10;11.10;;;4.00;;
41141;SDS011;26882;0.000;0.000;2022-08-25T22:57:44;7.00;;;3.70;;
41141;SDS011;26882;0.000;0.000;2022-08-25T23:00:17;7.80;;;3.90;;
41141;SDS011;26882;0.000;0.000;2022-08-25T23:02:47;7.50;;;4.00;;
41141;SDS011;26882;0.000;0.000;2022-08-25T23:05:21;7.40;;;3.70;;
41141;SDS011;26882;0.000;0.000;2022-08-25T23:07:52;7.20;;;4.00;;
41141;SDS011;26882;0.000;0.000;2022-08-25T23:10:23;6.50;;;3.70;;
41141;SDS011;26882;0.000;0.000;2022-08-25T23:12:54;8.90;;;3.70;;
41141;SDS011;26882;0.000;0.000;2022-08-25T23:15:26;7.40;;;3.90;;
41141;SDS011;26882;0.000;0.000;2022-08-25T23:17:56;7.30;;;3.80;;
41141;SDS011;26882;0.000;0.000;2022-08-25T23:20:27;7.40;;;3.80;;
41141;SDS011;26882;0.000;0.000;2022-08-25T23:23:15;7.40;;;3.90;;